createdAt,value
2023-01-09T00:02:04.909Z,96546.31
2023-01-09T00:04:33.907Z,96541.28
2023-01-09T00:07:02.674Z,96548.25
2023-01-09T00:09:31.437Z,96545.59
2023-01-09T00:12:00.097Z,96548.25
2023-01-09T00:14:28.669Z,96548.25
2023-01-09T00:16:58.927Z,96539.03
2023-01-09T00:19:27.706Z,96549.19
2023-01-09T00:21:56.286Z,96537.38
2023-01-09T00:24:24.961Z,96536.56
2023-01-09T00:26:53.538Z,96539.94
2023-01-09T00:29:22.437Z,96532.22
2023-01-09T00:31:51.053Z,96532.47
2023-01-09T00:34:21.122Z,96540.06
2023-01-09T00:36:54.988Z,96531.63
2023-01-09T00:39:24.021Z,96541.69
2023-01-09T00:41:54.939Z,96546.44
2023-01-09T00:44:26.088Z,96547.44
2023-01-09T00:46:58.508Z,96543.03
2023-01-09T00:49:30.752Z,96542.00
2023-01-09T00:51:59.499Z,96545.50
2023-01-09T00:54:30.630Z,96545.06
2023-01-09T00:56:59.644Z,96547.88
2023-01-09T00:59:29.255Z,96541.38
2023-01-09T01:01:58.073Z,96526.91
2023-01-09T01:04:45.749Z,96533.47
2023-01-09T01:07:32.369Z,96532.66
2023-01-09T01:10:01.015Z,96538.63
2023-01-09T01:12:29.765Z,96529.16
2023-01-09T01:14:58.403Z,96532.22
2023-01-09T01:17:27.026Z,96512.75
2023-01-09T01:19:57.365Z,96507.38
2023-01-09T01:22:25.912Z,96505.75
2023-01-09T01:24:54.812Z,96530.47
2023-01-09T01:27:23.431Z,96535.75
2023-01-09T01:29:52.346Z,96518.50
2023-01-09T01:32:21.072Z,96512.53
2023-01-09T01:34:49.680Z,96520.75
2023-01-09T01:37:21.806Z,96513.75
2023-01-09T01:39:50.362Z,96511.41
2023-01-09T01:42:18.999Z,96520.75
2023-01-09T01:45:09.572Z,96512.94
2023-01-09T01:47:50.121Z,96515.41
2023-01-09T01:50:25.432Z,96516.31
2023-01-09T01:53:01.854Z,96502.47
2023-01-09T01:55:30.787Z,96504.72
2023-01-09T01:58:01.986Z,96513.34
2023-01-09T02:00:32.641Z,96516.13
2023-01-09T02:03:02.163Z,96539.84
2023-01-09T02:05:31.035Z,96539.00
2023-01-09T02:08:01.010Z,96529.78
2023-01-09T02:10:29.825Z,96523.94
2023-01-09T02:12:58.485Z,96522.88
2023-01-09T02:15:27.862Z,96513.97
2023-01-09T02:18:16.889Z,96506.38
2023-01-09T02:20:53.741Z,96513.13
2023-01-09T02:23:54.503Z,96512.13
2023-01-09T02:26:37.640Z,96496.59
2023-01-09T02:29:46.785Z,96502.78
2023-01-09T02:32:25.594Z,96495.41
2023-01-09T02:35:00.492Z,96495.06
2023-01-09T02:37:30.649Z,96496.22
2023-01-09T02:40:08.918Z,96496.72
2023-01-09T02:42:38.251Z,96497.13
2023-01-09T02:45:07.466Z,96501.22
2023-01-09T02:47:40.293Z,96515.81
2023-01-09T02:50:11.820Z,96504.94
2023-01-09T02:53:04.458Z,96523.72
2023-01-09T02:55:48.291Z,96525.34
2023-01-09T02:58:24.842Z,96519.53
2023-01-09T03:00:59.438Z,96516.03
2023-01-09T03:03:35.692Z,96536.06
2023-01-09T03:06:08.229Z,96536.34
2023-01-09T03:08:40.852Z,96545.19
2023-01-09T03:11:11.833Z,96543.88
2023-01-09T03:13:44.768Z,96543.75
2023-01-09T03:16:15.961Z,96552.16
2023-01-09T03:18:46.106Z,96553.59
2023-01-09T03:21:15.406Z,96557.72
2023-01-09T03:23:48.938Z,96538.00
2023-01-09T03:26:17.748Z,96539.84
2023-01-09T03:28:47.236Z,96538.41
2023-01-09T03:31:16.262Z,96554.94
2023-01-09T03:33:46.291Z,96571.25
2023-01-09T03:36:15.693Z,96574.94
2023-01-09T03:38:44.329Z,96586.03
2023-01-09T03:41:13.097Z,96593.84
2023-01-09T03:43:41.782Z,96598.34
2023-01-09T03:46:10.519Z,96606.16
2023-01-09T03:48:39.361Z,96625.25
2023-01-09T03:51:09.595Z,96638.91
2023-01-09T03:53:38.610Z,96638.09
2023-01-09T03:56:07.744Z,96646.16
2023-01-09T03:58:36.549Z,96664.13
2023-01-09T04:01:09.395Z,96667.09
2023-01-09T04:03:38.280Z,96663.38
2023-01-09T04:06:08.712Z,96689.22
2023-01-09T04:08:37.382Z,96689.22
2023-01-09T04:11:06.369Z,96710.75
2023-01-09T04:13:35.131Z,96720.63
2023-01-09T04:16:03.864Z,96723.34
2023-01-09T04:18:32.823Z,96738.31
2023-01-09T04:21:01.528Z,96752.63
2023-01-09T04:23:31.555Z,96759.19
2023-01-09T04:26:00.320Z,96758.97
2023-01-09T04:28:29.038Z,96762.81
2023-01-09T04:30:57.647Z,96767.44
2023-01-09T04:33:26.270Z,96778.22
2023-01-09T04:35:54.893Z,96769.34
2023-01-09T04:38:23.585Z,96783.91
2023-01-09T04:40:53.556Z,96793.03
2023-01-09T04:43:22.294Z,96803.13
2023-01-09T04:45:50.950Z,96782.34
2023-01-09T04:48:19.773Z,96790.75
2023-01-09T04:50:48.439Z,96794.72
2023-01-09T04:53:17.069Z,96813.00
2023-01-09T04:55:45.658Z,96792.19
2023-01-09T04:58:15.650Z,96798.72
2023-01-09T05:00:44.400Z,96804.13
2023-01-09T05:03:13.125Z,96790.84
2023-01-09T05:05:41.817Z,96790.84
2023-01-09T05:08:10.399Z,96800.25
2023-01-09T05:10:39.039Z,96796.28
2023-01-09T05:13:07.804Z,96792.97
2023-01-09T05:15:37.734Z,96803.91
2023-01-09T05:18:06.509Z,96813.47
2023-01-09T05:20:35.177Z,96832.16
2023-01-09T05:23:03.723Z,96836.44
2023-01-09T05:25:32.618Z,96850.16
2023-01-09T05:28:01.463Z,96853.41
2023-01-09T05:30:30.183Z,96859.47
2023-01-09T05:33:00.201Z,96873.78
2023-01-09T05:35:28.855Z,96878.25
2023-01-09T05:37:57.492Z,96881.16
2023-01-09T05:40:29.294Z,96887.00
2023-01-09T05:43:01.084Z,96885.88
2023-01-09T05:45:29.726Z,96896.13
2023-01-09T05:47:59.811Z,96887.00
2023-01-09T05:50:28.667Z,96904.22
2023-01-09T05:52:57.432Z,96903.38
2023-01-09T05:55:26.845Z,96915.19
2023-01-09T05:57:55.540Z,96921.16
2023-01-09T06:00:24.575Z,96917.94
2023-01-09T06:02:53.217Z,96924.03
2023-01-09T06:05:23.195Z,96928.34
2023-01-09T06:07:51.846Z,96914.13
2023-01-09T06:10:20.627Z,96923.72
2023-01-09T06:12:50.535Z,96912.75
2023-01-09T06:15:20.582Z,96911.31
2023-01-09T06:17:49.476Z,96922.06
2023-01-09T06:20:18.289Z,96928.16
2023-01-09T06:22:51.922Z,96927.59
2023-01-09T06:25:20.624Z,96934.78
2023-01-09T06:27:49.744Z,96941.44
2023-01-09T06:30:19.180Z,96947.69
2023-01-09T06:32:50.151Z,96962.22
2023-01-09T06:35:20.483Z,96970.00
2023-01-09T06:37:50.796Z,96973.38
2023-01-09T06:40:21.100Z,96967.34
2023-01-09T06:42:50.435Z,96962.22
2023-01-09T06:45:19.186Z,96958.25
2023-01-09T06:47:48.307Z,96962.72
2023-01-09T06:50:17.402Z,96971.38
2023-01-09T06:52:46.102Z,96974.19
2023-01-09T06:55:16.734Z,96970.81
2023-01-09T06:57:45.626Z,96986.16
2023-01-09T07:00:14.967Z,96990.13
2023-01-09T07:02:43.520Z,96979.38
2023-01-09T07:05:12.999Z,96994.72
2023-01-09T07:07:42.127Z,96982.19
2023-01-09T07:10:12.205Z,96984.00
2023-01-09T07:12:42.181Z,96981.53
2023-01-09T07:15:11.576Z,96982.53
2023-01-09T07:17:40.384Z,96985.97
2023-01-09T07:20:10.108Z,96974.91
2023-01-09T07:22:38.893Z,96975.72
2023-01-09T07:25:08.323Z,96984.31
2023-01-09T07:27:37.045Z,96989.44
2023-01-09T07:30:08.368Z,96991.31
2023-01-09T07:32:38.478Z,96999.69
2023-01-09T07:35:08.491Z,96998.94
2023-01-09T07:37:37.121Z,96997.94
2023-01-09T07:40:06.601Z,97002.31
2023-01-09T07:42:35.342Z,96996.28
2023-01-09T07:45:03.982Z,96996.28
2023-01-09T07:47:33.984Z,96997.22
2023-01-09T07:50:02.702Z,96999.09
2023-01-09T07:52:31.265Z,97005.03
2023-01-09T07:55:00.113Z,97013.38
2023-01-09T07:57:29.829Z,97019.63
2023-01-09T08:00:00.530Z,97015.03
2023-01-09T08:02:29.179Z,97021.06
2023-01-09T08:04:59.179Z,97023.81
2023-01-09T08:07:28.017Z,97030.56
2023-01-09T08:09:56.688Z,97039.41
2023-01-09T08:12:25.333Z,97030.81
2023-01-09T08:14:53.968Z,97029.06
2023-01-09T08:17:22.582Z,97035.19
2023-01-09T08:19:51.173Z,97033.94
2023-01-09T08:22:21.396Z,97038.19
2023-01-09T08:24:50.019Z,97036.97
2023-01-09T08:27:18.651Z,97035.81
2023-01-09T08:29:47.379Z,97033.09
2023-01-09T08:32:16.190Z,97026.06
2023-01-09T08:34:44.895Z,97026.13
2023-01-09T08:37:13.732Z,97027.72
2023-01-09T08:39:43.834Z,97037.38
2023-01-09T08:42:30.294Z,97036.47
2023-01-09T08:45:16.332Z,97037.88
2023-01-09T08:47:45.011Z,97040.53
2023-01-09T08:50:13.654Z,97044.00
2023-01-09T08:52:42.227Z,97036.88
2023-01-09T08:55:12.506Z,97038.53
2023-01-09T08:57:48.182Z,97041.03
2023-01-09T09:00:17.742Z,97051.94
2023-01-09T09:02:46.507Z,97049.94
2023-01-09T09:05:15.419Z,97048.31
2023-01-09T09:07:44.055Z,97037.97
2023-01-09T09:10:14.288Z,97031.88
2023-01-09T09:12:43.039Z,97026.66
2023-01-09T09:15:16.487Z,97034.28
2023-01-09T09:17:45.689Z,97025.16
2023-01-09T09:20:14.363Z,96999.53
2023-01-09T09:22:43.391Z,97015.72
2023-01-09T09:25:13.524Z,97013.72
2023-01-09T09:27:42.332Z,97011.25
2023-01-09T09:30:14.971Z,97023.84
2023-01-09T09:32:43.718Z,97043.38
2023-01-09T09:35:12.837Z,97038.66
2023-01-09T09:37:41.841Z,97035.66
2023-01-09T09:40:21.602Z,97033.28
2023-01-09T09:43:30.251Z,97040.53
2023-01-09T09:46:06.055Z,97045.19
2023-01-09T09:48:38.196Z,97039.88
2023-01-09T09:51:28.102Z,97055.91
2023-01-09T09:54:00.563Z,97059.31
2023-01-09T09:56:33.505Z,97056.56
2023-01-09T09:59:04.625Z,97056.56
2023-01-09T10:01:39.519Z,97059.59
2023-01-09T10:04:12.772Z,97054.00
2023-01-09T10:06:43.689Z,97047.44
2023-01-09T10:09:21.627Z,97056.63
2023-01-09T10:11:56.961Z,97048.38
2023-01-09T10:14:26.066Z,97034.53
2023-01-09T10:17:17.279Z,97041.13
2023-01-09T10:19:56.815Z,97018.16
2023-01-09T10:22:30.954Z,97025.50
2023-01-09T10:25:08.021Z,97022.03
2023-01-09T10:28:11.028Z,97020.66
2023-01-09T10:30:44.437Z,97015.47
2023-01-09T10:33:31.804Z,97013.44
2023-01-09T10:36:23.731Z,97021.97
2023-01-09T10:38:54.322Z,97015.47
2023-01-09T10:41:25.960Z,97011.81
2023-01-09T10:44:00.662Z,97005.19
2023-01-09T10:46:31.827Z,97008.75
2023-01-09T10:49:02.348Z,97017.28
2023-01-09T10:51:36.115Z,96997.75
2023-01-09T10:54:05.901Z,97018.09
2023-01-09T10:56:39.640Z,96989.22
2023-01-09T10:59:10.885Z,96997.13
2023-01-09T11:01:41.067Z,96985.59
2023-01-09T11:04:21.702Z,97005.97
2023-01-09T11:06:52.302Z,97005.88
2023-01-09T11:09:20.876Z,96993.31
2023-01-09T11:11:51.415Z,96990.56
2023-01-09T11:14:31.160Z,96992.50
2023-01-09T11:17:01.239Z,96988.19
2023-01-09T11:19:31.087Z,96992.28
2023-01-09T11:22:09.614Z,97001.56
2023-01-09T11:24:38.285Z,96992.59
2023-01-09T11:27:25.153Z,96993.31
2023-01-09T11:30:16.623Z,96991.03
2023-01-09T11:32:46.689Z,96987.47
2023-01-09T11:35:33.708Z,96985.81
2023-01-09T11:38:07.168Z,96987.47
2023-01-09T11:40:46.179Z,96971.59
2023-01-09T11:43:37.694Z,96989.09
2023-01-09T11:46:11.613Z,96973.50
2023-01-09T11:48:42.199Z,96969.16
2023-01-09T11:51:22.566Z,96963.59
2023-01-09T11:54:13.419Z,96955.50
2023-01-09T11:56:42.546Z,96961.66
2023-01-09T11:59:13.673Z,96960.34
2023-01-09T12:02:18.180Z,96963.50
2023-01-09T12:04:52.837Z,96963.88
2023-01-09T12:07:57.710Z,96964.38
2023-01-09T12:10:48.874Z,96961.91
2023-01-09T12:13:27.512Z,96957.88
2023-01-09T12:16:03.094Z,96958.81
2023-01-09T12:18:39.037Z,96952.53
2023-01-09T12:21:23.315Z,96962.50
2023-01-09T12:24:12.220Z,96971.75
2023-01-09T12:26:47.241Z,96954.31
2023-01-09T12:29:48.348Z,96965.19
2023-01-09T12:32:30.006Z,96967.84
2023-01-09T12:35:03.394Z,96979.72
2023-01-09T12:37:57.177Z,96977.34
2023-01-09T12:40:43.716Z,96977.22
2023-01-09T12:43:19.863Z,96988.16
2023-01-09T12:45:57.405Z,96995.47
2023-01-09T12:48:40.357Z,96993.22
2023-01-09T12:51:23.390Z,97004.47
2023-01-09T12:53:58.874Z,97004.66
2023-01-09T12:56:32.349Z,97008.22
2023-01-09T12:59:03.089Z,97000.81
2023-01-09T13:01:34.069Z,97005.59
2023-01-09T13:04:09.158Z,97007.63
2023-01-09T13:06:37.769Z,96996.94
2023-01-09T13:09:19.595Z,97003.75
2023-01-09T13:11:51.346Z,97005.03
2023-01-09T13:14:24.762Z,97001.38
2023-01-09T13:16:55.740Z,96994.13
2023-01-09T13:19:26.723Z,97005.59
2023-01-09T13:21:56.538Z,97009.31
2023-01-09T13:24:31.535Z,97001.38
2023-01-09T13:27:00.283Z,97007.84
2023-01-09T13:29:29.833Z,97003.34
2023-01-09T13:32:15.013Z,97014.44
2023-01-09T13:34:45.313Z,97022.06
2023-01-09T13:37:20.798Z,97016.31
2023-01-09T13:39:56.573Z,97011.00
2023-01-09T13:42:38.944Z,97015.50
2023-01-09T13:45:11.562Z,97015.09
2023-01-09T13:47:40.010Z,97010.38
2023-01-09T13:50:25.239Z,97023.63
2023-01-09T13:52:53.731Z,97025.41
2023-01-09T13:55:28.813Z,97029.16
2023-01-09T13:58:22.514Z,97020.44
2023-01-09T14:00:53.155Z,97033.47
2023-01-09T14:03:23.055Z,97039.88
2023-01-09T14:06:09.649Z,97038.25
2023-01-09T14:08:38.230Z,97044.84
2023-01-09T14:11:08.433Z,97058.78
2023-01-09T14:13:39.795Z,97058.97
2023-01-09T14:16:09.048Z,97060.81
2023-01-09T14:18:37.981Z,97057.59
2023-01-09T14:23:51.466Z,97065.75
2023-01-09T14:26:23.431Z,97077.13
2023-01-09T14:28:52.230Z,97060.63
2023-01-09T14:31:29.866Z,97076.84
2023-01-09T14:34:23.954Z,97077.34
2023-01-09T14:36:59.727Z,97082.91
2023-01-09T14:39:28.460Z,97090.50
2023-01-09T14:42:02.493Z,97096.41
2023-01-09T14:44:31.333Z,97099.97
2023-01-09T14:47:00.528Z,97108.50
2023-01-09T14:49:31.679Z,97107.94
2023-01-09T14:52:00.697Z,97111.16
2023-01-09T14:54:29.895Z,97115.00
2023-01-09T14:57:01.152Z,97121.91
2023-01-09T14:59:29.781Z,97125.19
2023-01-09T15:01:59.017Z,97132.63
2023-01-09T15:04:31.533Z,97139.88
2023-01-09T15:06:59.933Z,97150.47
2023-01-09T15:09:28.811Z,97155.00
2023-01-09T15:11:58.236Z,97161.06
2023-01-09T15:14:32.535Z,97169.53
2023-01-09T15:17:01.133Z,97175.38
2023-01-09T15:19:30.132Z,97186.63
2023-01-09T15:21:59.955Z,97186.84
2023-01-09T15:24:29.699Z,97180.88
2023-01-09T15:26:58.701Z,97181.31
2023-01-09T15:29:28.700Z,97188.16
2023-01-09T15:32:00.012Z,97175.03
2023-01-09T15:34:28.632Z,97176.03
2023-01-09T15:36:57.244Z,97175.47
2023-01-09T15:39:26.517Z,97178.13
2023-01-09T15:42:12.626Z,97188.13
2023-01-09T15:44:41.524Z,97197.56
2023-01-09T15:47:14.803Z,97211.22
2023-01-09T15:49:43.334Z,97219.31
2023-01-09T15:52:15.081Z,97241.16
2023-01-09T15:54:46.044Z,97238.69
2023-01-09T15:57:33.128Z,97253.16
2023-01-09T16:00:20.445Z,97258.22
2023-01-09T16:03:07.695Z,97248.00
2023-01-09T16:05:39.985Z,97243.97
2023-01-09T16:08:16.377Z,97242.16
2023-01-09T16:10:45.160Z,97237.09
2023-01-09T16:13:14.379Z,97238.09
2023-01-09T16:15:44.153Z,97254.31
2023-01-09T16:18:24.087Z,97268.25
2023-01-09T16:20:55.595Z,97273.34
2023-01-09T16:23:25.040Z,97276.97
2023-01-09T16:26:02.501Z,97275.47
2023-01-09T16:28:31.261Z,97283.53
2023-01-09T16:31:00.134Z,97284.69
2023-01-09T16:33:30.448Z,97278.88
2023-01-09T16:35:59.487Z,97285.56
2023-01-09T16:38:28.281Z,97295.19
2023-01-09T16:41:24.065Z,97301.97
2023-01-09T16:43:52.688Z,97296.94
2023-01-09T16:46:21.618Z,97299.59
2023-01-09T16:48:51.588Z,97306.59
2023-01-09T16:51:21.656Z,97305.09
2023-01-09T16:53:50.398Z,97305.81
2023-01-09T16:56:19.955Z,97304.56
2023-01-09T16:58:48.780Z,97317.13
2023-01-09T17:01:18.201Z,97323.91
2023-01-09T17:03:47.877Z,97328.19
2023-01-09T17:06:20.037Z,97324.72
2023-01-09T17:08:48.735Z,97330.69
2023-01-09T17:11:19.868Z,97338.28
2023-01-09T17:13:48.615Z,97331.53
2023-01-09T17:16:17.751Z,97326.53
2023-01-09T17:18:46.406Z,97331.66
2023-01-09T17:21:16.111Z,97333.63
2023-01-09T17:23:46.071Z,97333.09
2023-01-09T17:26:36.115Z,97340.69
2023-01-09T17:29:05.111Z,97334.16
2023-01-09T17:31:33.670Z,97338.50
2023-01-09T17:34:02.373Z,97341.13
2023-01-09T17:36:32.302Z,97341.88
2023-01-09T17:39:02.437Z,97349.03
2023-01-09T17:41:31.954Z,97348.41
2023-01-09T17:44:00.794Z,97361.16
2023-01-09T17:46:30.278Z,97356.16
2023-01-09T17:48:58.955Z,97358.19
2023-01-09T17:51:27.518Z,97356.53
2023-01-09T17:53:56.081Z,97364.44
2023-01-09T17:56:26.655Z,97363.59
2023-01-09T17:58:55.261Z,97377.09
2023-01-09T18:01:23.825Z,97373.00
2023-01-09T18:03:52.525Z,97365.47
2023-01-09T18:06:22.268Z,97372.03
2023-01-09T18:08:50.836Z,97378.88
2023-01-09T18:11:19.977Z,97387.59
2023-01-09T18:13:50.434Z,97381.75
2023-01-09T18:16:19.999Z,97393.69
2023-01-09T18:18:48.508Z,97398.44
2023-01-09T18:21:18.294Z,97402.97
2023-01-09T18:23:48.798Z,97416.03
2023-01-09T18:26:21.484Z,97427.94
2023-01-09T18:28:51.903Z,97433.97
2023-01-09T18:31:22.822Z,97444.38
2023-01-09T18:33:52.843Z,97459.03
2023-01-09T18:36:21.995Z,97459.31
2023-01-09T18:38:51.247Z,97473.19
2023-01-09T18:41:19.858Z,97462.25
2023-01-09T18:43:50.761Z,97483.91
2023-01-09T18:46:23.862Z,97475.34
2023-01-09T18:48:53.014Z,97481.34
2023-01-09T18:51:21.948Z,97487.34
2023-01-09T18:53:50.523Z,97487.34
2023-01-09T18:56:19.343Z,97491.50
2023-01-09T18:58:48.205Z,97502.06
2023-01-09T19:01:18.142Z,97501.03
2023-01-09T19:03:46.672Z,97513.06
2023-01-09T19:06:15.840Z,97515.81
2023-01-09T19:08:44.643Z,97522.75
2023-01-09T19:11:13.121Z,97526.03
2023-01-09T19:13:41.604Z,97546.66
2023-01-09T19:16:10.826Z,97541.44
2023-01-09T19:18:41.103Z,97564.69
2023-01-09T19:21:10.367Z,97553.00
2023-01-09T19:23:38.875Z,97554.66
2023-01-09T19:26:08.799Z,97561.00
2023-01-09T19:28:38.237Z,97572.38
2023-01-09T19:31:07.130Z,97566.50
2023-01-09T19:33:35.918Z,97575.09
2023-01-09T19:36:06.119Z,97573.28
2023-01-09T19:38:34.774Z,97576.75
2023-01-09T19:41:09.072Z,97575.84
2023-01-09T19:43:39.829Z,97580.31
2023-01-09T19:46:09.570Z,97583.00
2023-01-09T19:48:38.043Z,97582.78
2023-01-09T19:51:08.884Z,97588.03
2023-01-09T19:53:37.554Z,97596.69
2023-01-09T19:56:13.065Z,97603.56
2023-01-09T19:58:41.706Z,97608.66
2023-01-09T20:01:10.679Z,97605.41
2023-01-09T20:03:39.438Z,97608.66
2023-01-09T20:06:13.893Z,97612.31
2023-01-09T20:08:42.617Z,97607.91
2023-01-09T20:11:11.574Z,97618.25
2023-01-09T20:13:40.172Z,97609.81
2023-01-09T20:16:09.019Z,97613.38
2023-01-09T20:18:37.575Z,97613.38
2023-01-09T20:21:06.447Z,97609.94
2023-01-09T20:23:37.507Z,97629.50
2023-01-09T20:26:06.129Z,97636.38
2023-01-09T20:28:34.673Z,97634.84
2023-01-09T20:31:05.694Z,97642.63
2023-01-09T20:33:35.023Z,97645.06
2023-01-09T20:36:04.793Z,97646.84
2023-01-09T20:38:33.348Z,97646.78
2023-01-09T20:41:09.861Z,97656.97
2023-01-09T20:43:40.035Z,97659.53
2023-01-09T20:46:09.372Z,97667.31
2023-01-09T20:48:38.291Z,97679.19
2023-01-09T20:51:07.388Z,97675.91
2023-01-09T20:53:35.906Z,97669.19
2023-01-09T20:56:04.842Z,97665.91
2023-01-09T20:58:34.757Z,97670.19
2023-01-09T21:01:06.243Z,97677.75
2023-01-09T21:03:34.823Z,97685.31
2023-01-09T21:06:04.983Z,97690.53
2023-01-09T21:08:33.629Z,97685.59
2023-01-09T21:11:02.402Z,97676.03
2023-01-09T21:13:31.038Z,97683.78
2023-01-09T21:16:02.735Z,97682.94
2023-01-09T21:18:31.513Z,97688.63
2023-01-09T21:21:02.772Z,97693.88
2023-01-09T21:23:31.447Z,97686.22
2023-01-09T21:26:00.547Z,97690.41
2023-01-09T21:28:31.431Z,97705.69
2023-01-09T21:31:00.050Z,97698.97
2023-01-09T21:33:30.078Z,97699.75
2023-01-09T21:35:59.138Z,97703.28
2023-01-09T21:38:27.919Z,97704.84
2023-01-09T21:40:56.319Z,97710.88
2023-01-09T21:43:55.020Z,97714.19
2023-01-09T21:46:49.581Z,97712.53
2023-01-09T21:49:19.697Z,97715.97
2023-01-09T21:51:48.399Z,97721.03
2023-01-09T21:54:16.956Z,97728.53
2023-01-09T21:56:45.821Z,97729.41
2023-01-09T21:59:14.362Z,97733.69
2023-01-09T22:01:42.908Z,97740.59
2023-01-09T22:04:13.522Z,97749.81
2023-01-09T22:06:43.418Z,97748.19
2023-01-09T22:09:12.140Z,97756.78
2023-01-09T22:11:40.727Z,97757.53
2023-01-09T22:14:11.027Z,97758.44
2023-01-09T22:16:39.698Z,97764.38
2023-01-09T22:19:12.837Z,97767.81
2023-01-09T22:21:43.378Z,97769.47
2023-01-09T22:24:14.340Z,97775.41
2023-01-09T22:26:43.417Z,97781.44
2023-01-09T22:29:11.936Z,97783.88
2023-01-09T22:31:40.816Z,97796.69
2023-01-09T22:34:11.279Z,97798.50
2023-01-09T22:36:39.882Z,97806.19
2023-01-09T22:39:11.525Z,97808.75
2023-01-09T22:41:40.255Z,97817.22
2023-01-09T22:44:09.998Z,97813.84
2023-01-09T22:46:38.629Z,97829.94
2023-01-09T22:49:07.188Z,97830.91
2023-01-09T22:51:35.748Z,97833.44
2023-01-09T22:54:04.467Z,97837.72
2023-01-09T22:56:34.419Z,97845.34
2023-01-09T22:59:02.920Z,97845.44
2023-01-09T23:01:31.408Z,97847.16
2023-01-09T23:03:59.920Z,97856.19
2023-01-09T23:06:28.363Z,97856.91
2023-01-09T23:08:56.809Z,97862.59
2023-01-09T23:11:44.328Z,97869.38
2023-01-09T23:14:14.270Z,97873.84
2023-01-09T23:16:42.836Z,97873.38
2023-01-09T23:19:13.665Z,97875.75
2023-01-09T23:21:42.166Z,97870.25
2023-01-09T23:24:10.983Z,97869.81
2023-01-09T23:26:39.518Z,97878.38
2023-01-09T23:29:07.982Z,97885.06
2023-01-09T23:31:37.819Z,97881.75
2023-01-09T23:34:08.021Z,97880.78
2023-01-09T23:36:36.721Z,97896.25
2023-01-09T23:39:08.881Z,97880.03
2023-01-09T23:41:54.975Z,97885.13
2023-01-09T23:44:23.500Z,97894.72
2023-01-09T23:46:53.457Z,97899.91
2023-01-09T23:49:22.124Z,97907.63
2023-01-09T23:51:50.710Z,97905.03
2023-01-09T23:54:19.167Z,97905.88
2023-01-09T23:56:47.700Z,97913.69
2023-01-09T23:59:17.867Z,97912.22
